sensor_id;sensor_type;location;lat;lon;timestamp;P1;durP1;ratioP1;P2;durP2;ratioP2
75116;SDS011;63694;47.338;8.520;2022-10-16T07:01:03;12.82;;;1.80;;
75116;SDS011;63694;47.338;8.520;2022-10-16T07:03:29;17.20;;;2.22;;
75116;SDS011;63694;47.338;8.520;2022-10-16T07:05:55;13.82;;;1.73;;
75116;SDS011;63694;47.338;8.520;2022-10-16T07:08:22;13.32;;;1.50;;
75116;SDS011;63694;47.338;8.520;2022-10-16T07:10:48;8.60;;;1.98;;
75116;SDS011;63694;47.338;8.520;2022-10-16T07:13:14;6.70;;;1.65;;
75116;SDS011;63694;47.338;8.520;2022-10-16T07:15:40;4.50;;;1.48;;
75116;SDS011;63694;47.338;8.520;2022-10-16T07:18:07;7.47;;;1.42;;
75116;SDS011;63694;47.338;8.520;2022-10-16T07:20:33;14.43;;;1.48;;
75116;SDS011;63694;47.338;8.520;2022-10-16T07:22:59;15.40;;;1.50;;
75116;SDS011;63694;47.338;8.520;2022-10-16T07:25:25;7.25;;;1.65;;
75116;SDS011;63694;47.338;8.520;2022-10-16T07:27:50;8.45;;;1.40;;
75116;SDS011;63694;47.338;8.520;2022-10-16T07:30:16;8.23;;;1.38;;
75116;SDS011;63694;47.338;8.520;2022-10-16T07:32:42;16.50;;;1.30;;
75116;SDS011;63694;47.338;8.520;2022-10-16T07:35:08;8.30;;;1.48;;
75116;SDS011;63694;47.338;8.520;2022-10-16T07:37:34;7.32;;;1.40;;
75116;SDS011;63694;47.338;8.520;2022-10-16T07:40:00;10.02;;;1.15;;
75116;SDS011;63694;47.338;8.520;2022-10-16T07:42:27;6.70;;;1.42;;
75116;SDS011;63694;47.338;8.520;2022-10-16T07:44:53;5.88;;;1.20;;
75116;SDS011;63694;47.338;8.520;2022-10-16T07:47:19;8.63;;;1.60;;
75116;SDS011;63694;47.338;8.520;2022-10-16T07:49:45;7.03;;;1.48;;
75116;SDS011;63694;47.338;8.520;2022-10-16T07:52:11;7.07;;;1.15;;
75116;SDS011;63694;47.338;8.520;2022-10-16T07:54:37;5.40;;;1.15;;
75116;SDS011;63694;47.338;8.520;2022-10-16T07:57:03;4.63;;;1.40;;
75116;SDS011;63694;47.338;8.520;2022-10-16T07:59:29;8.88;;;1.50;;
75116;SDS011;63694;47.338;8.520;2022-10-16T08:01:55;9.80;;;1.50;;
75116;SDS011;63694;47.338;8.520;2022-10-16T08:04:21;8.77;;;1.63;;
75116;SDS011;63694;47.338;8.520;2022-10-16T08:06:47;9.02;;;1.90;;
75116;SDS011;63694;47.338;8.520;2022-10-16T08:09:14;6.78;;;1.20;;
75116;SDS011;63694;47.338;8.520;2022-10-16T08:11:40;5.68;;;1.73;;
75116;SDS011;63694;47.338;8.520;2022-10-16T08:14:05;4.47;;;1.23;;
75116;SDS011;63694;47.338;8.520;2022-10-16T08:16:31;4.60;;;1.25;;
75116;SDS011;63694;47.338;8.520;2022-10-16T08:18:57;5.15;;;1.10;;
75116;SDS011;63694;47.338;8.520;2022-10-16T08:21:23;6.53;;;1.45;;
75116;SDS011;63694;47.338;8.520;2022-10-16T08:23:50;4.70;;;1.10;;
75116;SDS011;63694;47.338;8.520;2022-10-16T08:26:16;9.05;;;1.10;;
75116;SDS011;63694;47.338;8.520;2022-10-16T08:28:42;3.60;;;1.10;;
75116;SDS011;63694;47.338;8.520;2022-10-16T08:31:12;3.38;;;1.13;;
75116;SDS011;63694;47.338;8.520;2022-10-16T08:33:38;2.00;;;0.90;;
75116;SDS011;63694;47.338;8.520;2022-10-16T08:36:05;3.67;;;1.10;;
75116;SDS011;63694;47.338;8.520;2022-10-16T08:38:31;2.13;;;0.90;;
75116;SDS011;63694;47.338;8.520;2022-10-16T08:41:03;2.70;;;1.10;;
75116;SDS011;63694;47.338;8.520;2022-10-16T08:48:43;1.58;;;1.00;;
75116;SDS011;63694;47.338;8.520;2022-10-16T08:51:11;2.58;;;0.90;;
75116;SDS011;63694;47.338;8.520;2022-10-16T08:56:33;2.25;;;1.02;;
75116;SDS011;63694;47.338;8.520;2022-10-16T08:58:59;1.55;;;1.00;;
75116;SDS011;63694;47.338;8.520;2022-10-16T09:01:32;3.47;;;1.10;;
75116;SDS011;63694;47.338;8.520;2022-10-16T09:06:56;4.10;;;1.23;;
75116;SDS011;63694;47.338;8.520;2022-10-16T09:12:21;3.60;;;1.10;;
75116;SDS011;63694;47.338;8.520;2022-10-16T09:14:50;1.70;;;1.05;;
75116;SDS011;63694;47.338;8.520;2022-10-16T09:17:26;4.97;;;1.30;;
75116;SDS011;63694;47.338;8.520;2022-10-16T09:22:40;6.18;;;1.10;;
75116;SDS011;63694;47.338;8.520;2022-10-16T09:25:10;2.42;;;0.93;;
75116;SDS011;63694;47.338;8.520;2022-10-16T09:27:37;1.67;;;0.93;;
75116;SDS011;63694;47.338;8.520;2022-10-16T09:30:22;1.55;;;1.00;;
75116;SDS011;63694;47.338;8.520;2022-10-16T09:32:49;2.30;;;1.38;;
75116;SDS011;63694;47.338;8.520;2022-10-16T09:35:18;1.95;;;0.93;;
75116;SDS011;63694;47.338;8.520;2022-10-16T09:37:46;1.95;;;0.90;;
75116;SDS011;63694;47.338;8.520;2022-10-16T09:43:02;1.50;;;1.00;;
75116;SDS011;63694;47.338;8.520;2022-10-16T09:45:28;4.35;;;1.00;;
75116;SDS011;63694;47.338;8.520;2022-10-16T09:47:54;3.97;;;1.45;;
75116;SDS011;63694;47.338;8.520;2022-10-16T09:50:27;1.60;;;0.95;;
75116;SDS011;63694;47.338;8.520;2022-10-16T09:53:04;2.05;;;1.00;;
75116;SDS011;63694;47.338;8.520;2022-10-16T09:55:30;3.38;;;1.00;;
75116;SDS011;63694;47.338;8.520;2022-10-16T09:57:56;2.45;;;1.10;;
75116;SDS011;63694;47.338;8.520;2022-10-16T10:00:22;2.20;;;0.98;;
75116;SDS011;63694;47.338;8.520;2022-10-16T10:02:49;1.33;;;1.00;;
75116;SDS011;63694;47.338;8.520;2022-10-16T10:05:20;1.27;;;0.90;;
75116;SDS011;63694;47.338;8.520;2022-10-16T10:07:52;3.85;;;1.00;;
75116;SDS011;63694;47.338;8.520;2022-10-16T10:10:20;1.60;;;0.90;;
75116;SDS011;63694;47.338;8.520;2022-10-16T10:12:46;2.28;;;1.10;;
75116;SDS011;63694;47.338;8.520;2022-10-16T10:15:13;1.45;;;1.00;;
75116;SDS011;63694;47.338;8.520;2022-10-16T10:17:45;2.70;;;1.00;;
75116;SDS011;63694;47.338;8.520;2022-10-16T10:20:21;2.80;;;0.90;;
75116;SDS011;63694;47.338;8.520;2022-10-16T10:22:47;3.05;;;1.02;;
75116;SDS011;63694;47.338;8.520;2022-10-16T10:27:43;2.05;;;1.05;;
75116;SDS011;63694;47.338;8.520;2022-10-16T10:30:20;1.42;;;0.90;;
75116;SDS011;63694;47.338;8.520;2022-10-16T10:35:49;1.50;;;1.00;;
75116;SDS011;63694;47.338;8.520;2022-10-16T10:43:30;1.92;;;1.00;;
75116;SDS011;63694;47.338;8.520;2022-10-16T10:46:04;1.73;;;1.20;;
75116;SDS011;63694;47.338;8.520;2022-10-16T10:48:49;1.60;;;0.90;;
75116;SDS011;63694;47.338;8.520;2022-10-16T10:51:36;2.28;;;1.08;;
75116;SDS011;63694;47.338;8.520;2022-10-16T10:59:29;2.00;;;1.00;;
75116;SDS011;63694;47.338;8.520;2022-10-16T11:07:30;6.50;;;1.40;;
75116;SDS011;63694;47.338;8.520;2022-10-16T11:09:57;2.47;;;1.10;;
75116;SDS011;63694;47.338;8.520;2022-10-16T11:12:29;3.97;;;0.98;;
75116;SDS011;63694;47.338;8.520;2022-10-16T11:17:27;3.17;;;0.90;;
75116;SDS011;63694;47.338;8.520;2022-10-16T11:22:44;3.35;;;1.00;;
75116;SDS011;63694;47.338;8.520;2022-10-16T11:25:16;4.53;;;1.10;;
75116;SDS011;63694;47.338;8.520;2022-10-16T11:27:51;2.83;;;0.90;;
75116;SDS011;63694;47.338;8.520;2022-10-16T11:30:26;4.47;;;1.05;;
75116;SDS011;63694;47.338;8.520;2022-10-16T11:35:24;9.23;;;1.17;;
75116;SDS011;63694;47.338;8.520;2022-10-16T11:37:51;3.05;;;0.90;;
75116;SDS011;63694;47.338;8.520;2022-10-16T11:40:33;3.97;;;1.13;;
75116;SDS011;63694;47.338;8.520;2022-10-16T11:43:12;4.90;;;1.10;;
75116;SDS011;63694;47.338;8.520;2022-10-16T11:45:42;1.75;;;0.90;;
75116;SDS011;63694;47.338;8.520;2022-10-16T11:48:24;1.92;;;1.00;;
75116;SDS011;63694;47.338;8.520;2022-10-16T11:56:03;2.17;;;1.13;;
75116;SDS011;63694;47.338;8.520;2022-10-16T12:01:29;4.80;;;1.27;;
75116;SDS011;63694;47.338;8.520;2022-10-16T12:09:04;4.95;;;1.35;;
75116;SDS011;63694;47.338;8.520;2022-10-16T12:11:37;1.60;;;1.00;;
75116;SDS011;63694;47.338;8.520;2022-10-16T12:19:43;3.20;;;0.98;;
75116;SDS011;63694;47.338;8.520;2022-10-16T12:22:15;2.08;;;1.10;;
75116;SDS011;63694;47.338;8.520;2022-10-16T12:24:43;2.25;;;1.17;;
75116;SDS011;63694;47.338;8.520;2022-10-16T12:27:27;5.45;;;1.20;;
75116;SDS011;63694;47.338;8.520;2022-10-16T12:29:54;6.32;;;1.08;;
75116;SDS011;63694;47.338;8.520;2022-10-16T12:34:47;2.42;;;1.10;;
75116;SDS011;63694;47.338;8.520;2022-10-16T12:37:20;3.15;;;1.10;;
75116;SDS011;63694;47.338;8.520;2022-10-16T12:39:48;4.72;;;1.30;;
75116;SDS011;63694;47.338;8.520;2022-10-16T12:44:46;7.18;;;1.33;;
75116;SDS011;63694;47.338;8.520;2022-10-16T12:47:19;6.18;;;1.27;;
75116;SDS011;63694;47.338;8.520;2022-10-16T12:49:53;8.88;;;1.30;;
75116;SDS011;63694;47.338;8.520;2022-10-16T12:52:38;8.23;;;1.40;;
75116;SDS011;63694;47.338;8.520;2022-10-16T12:55:04;7.72;;;1.15;;
75116;SDS011;63694;47.338;8.520;2022-10-16T13:00:03;6.00;;;1.40;;
75116;SDS011;63694;47.338;8.520;2022-10-16T13:07:42;3.47;;;1.30;;
75116;SDS011;63694;47.338;8.520;2022-10-16T13:18:14;7.50;;;1.42;;
75116;SDS011;63694;47.338;8.520;2022-10-16T13:28:06;5.03;;;1.50;;
75116;SDS011;63694;47.338;8.520;2022-10-16T13:30:42;4.45;;;1.63;;
75116;SDS011;63694;47.338;8.520;2022-10-16T13:33:16;6.65;;;1.50;;
75116;SDS011;63694;47.338;8.520;2022-10-16T13:35:47;3.53;;;1.35;;
75116;SDS011;63694;47.338;8.520;2022-10-16T13:38:17;6.97;;;1.50;;
75116;SDS011;63694;47.338;8.520;2022-10-16T13:43:16;4.97;;;1.70;;
75116;SDS011;63694;47.338;8.520;2022-10-16T13:45:52;5.90;;;2.60;;
75116;SDS011;63694;47.338;8.520;2022-10-16T13:48:18;15.50;;;2.00;;
75116;SDS011;63694;47.338;8.520;2022-10-16T13:50:43;5.53;;;1.83;;
75116;SDS011;63694;47.338;8.520;2022-10-16T13:53:13;5.57;;;1.70;;
75116;SDS011;63694;47.338;8.520;2022-10-16T13:55:39;4.18;;;1.40;;
75116;SDS011;63694;47.338;8.520;2022-10-16T13:58:11;3.83;;;1.45;;
75116;SDS011;63694;47.338;8.520;2022-10-16T14:00:38;6.68;;;1.60;;
75116;SDS011;63694;47.338;8.520;2022-10-16T14:03:05;2.50;;;1.45;;
75116;SDS011;63694;47.338;8.520;2022-10-16T14:05:32;4.30;;;1.70;;
75116;SDS011;63694;47.338;8.520;2022-10-16T14:07:58;4.38;;;1.30;;
75116;SDS011;63694;47.338;8.520;2022-10-16T14:10:29;4.57;;;1.55;;
75116;SDS011;63694;47.338;8.520;2022-10-16T14:12:59;3.08;;;1.35;;
75116;SDS011;63694;47.338;8.520;2022-10-16T14:15:26;8.95;;;1.48;;
75116;SDS011;63694;47.338;8.520;2022-10-16T14:17:52;5.00;;;2.13;;
75116;SDS011;63694;47.338;8.520;2022-10-16T14:20:19;4.75;;;1.48;;
75116;SDS011;63694;47.338;8.520;2022-10-16T14:22:46;7.47;;;1.70;;
75116;SDS011;63694;47.338;8.520;2022-10-16T14:27:44;2.88;;;1.70;;
75116;SDS011;63694;47.338;8.520;2022-10-16T14:30:15;3.72;;;1.27;;
75116;SDS011;63694;47.338;8.520;2022-10-16T14:32:42;3.70;;;1.48;;
75116;SDS011;63694;47.338;8.520;2022-10-16T14:35:22;4.25;;;1.30;;
75116;SDS011;63694;47.338;8.520;2022-10-16T14:37:51;3.92;;;1.40;;
75116;SDS011;63694;47.338;8.520;2022-10-16T14:40:17;5.10;;;1.50;;
75116;SDS011;63694;47.338;8.520;2022-10-16T14:42:43;3.83;;;1.45;;
75116;SDS011;63694;47.338;8.520;2022-10-16T14:45:10;5.35;;;1.50;;
75116;SDS011;63694;47.338;8.520;2022-10-16T14:47:36;2.70;;;1.23;;
75116;SDS011;63694;47.338;8.520;2022-10-16T14:50:04;7.15;;;2.20;;
75116;SDS011;63694;47.338;8.520;2022-10-16T14:52:30;5.57;;;1.80;;
75116;SDS011;63694;47.338;8.520;2022-10-16T14:54:56;8.05;;;1.50;;
75116;SDS011;63694;47.338;8.520;2022-10-16T14:57:23;4.13;;;1.42;;
75116;SDS011;63694;47.338;8.520;2022-10-16T14:59:49;5.63;;;1.67;;
75116;SDS011;63694;47.338;8.520;2022-10-16T15:02:29;9.13;;;2.30;;
75116;SDS011;63694;47.338;8.520;2022-10-16T15:04:55;7.13;;;2.15;;
75116;SDS011;63694;47.338;8.520;2022-10-16T15:07:21;11.05;;;2.35;;
75116;SDS011;63694;47.338;8.520;2022-10-16T15:09:47;13.48;;;2.28;;
75116;SDS011;63694;47.338;8.520;2022-10-16T15:12:13;5.10;;;1.90;;
75116;SDS011;63694;47.338;8.520;2022-10-16T15:14:39;5.25;;;2.00;;
75116;SDS011;63694;47.338;8.520;2022-10-16T15:17:07;7.80;;;1.80;;
75116;SDS011;63694;47.338;8.520;2022-10-16T15:19:33;9.23;;;1.98;;
75116;SDS011;63694;47.338;8.520;2022-10-16T15:21:59;5.65;;;2.28;;
75116;SDS011;63694;47.338;8.520;2022-10-16T15:24:25;8.60;;;1.85;;
75116;SDS011;63694;47.338;8.520;2022-10-16T15:26:51;4.65;;;1.95;;
75116;SDS011;63694;47.338;8.520;2022-10-16T15:29:17;4.53;;;2.13;;
75116;SDS011;63694;47.338;8.520;2022-10-16T15:31:43;5.90;;;1.73;;
75116;SDS011;63694;47.338;8.520;2022-10-16T15:34:12;9.68;;;2.55;;
75116;SDS011;63694;47.338;8.520;2022-10-16T15:36:38;5.38;;;2.00;;
75116;SDS011;63694;47.338;8.520;2022-10-16T15:39:25;7.15;;;1.77;;
75116;SDS011;63694;47.338;8.520;2022-10-16T15:41:51;4.82;;;1.95;;
75116;SDS011;63694;47.338;8.520;2022-10-16T15:44:18;3.95;;;1.65;;
75116;SDS011;63694;47.338;8.520;2022-10-16T15:46:44;9.15;;;1.90;;
75116;SDS011;63694;47.338;8.520;2022-10-16T15:49:10;6.88;;;1.88;;
75116;SDS011;63694;47.338;8.520;2022-10-16T15:51:40;9.60;;;1.60;;
75116;SDS011;63694;47.338;8.520;2022-10-16T15:54:07;10.27;;;1.83;;
75116;SDS011;63694;47.338;8.520;2022-10-16T15:56:33;2.17;;;1.50;;
75116;SDS011;63694;47.338;8.520;2022-10-16T15:59:01;4.50;;;1.70;;
75116;SDS011;63694;47.338;8.520;2022-10-16T16:01:27;4.32;;;1.92;;
75116;SDS011;63694;47.338;8.520;2022-10-16T16:03:54;7.97;;;2.00;;
75116;SDS011;63694;47.338;8.520;2022-10-16T16:06:21;3.65;;;2.05;;
75116;SDS011;63694;47.338;8.520;2022-10-16T16:08:48;10.38;;;2.75;;
75116;SDS011;63694;47.338;8.520;2022-10-16T16:11:14;4.22;;;2.40;;
75116;SDS011;63694;47.338;8.520;2022-10-16T16:13:40;6.30;;;3.03;;
75116;SDS011;63694;47.338;8.520;2022-10-16T16:16:07;11.93;;;2.83;;
